KTCS/TCS METAR and TAF weather

Enter ICAO airport designator
Station Type Date Time Source
KTCS METAR 2019/06/19 00:53 UTC NOAA

KTCS 190053Z AUTO 25013G23KT 10SM CLR 34/M08 A2994 RMK AO2 SLP044 T03391078


Station Type Date Time Source
KTCS Decoded METAR 2019/06/19 00:53 UTC NOAA

TRUTH OR CONSEQUENCES MUNI, NM, United States (KTCS) 33-14N 107-16W 1469M
Jun 18, 2019 - 08:53 PM EDT / 2019.06.19 0053 UTC
Wind: from the WSW (250 degrees) at 15 MPH (13 KT) gusting to 26 MPH (23 KT):0
Visibility: 10 mile(s):0
Sky conditions: clear
Temperature: 93.0 F (33.9 C)
Dew Point: 18.0 F (-7.8 C)
Relative Humidity: 6%
Pressure (altimeter): 29.94 in. Hg (1013 hPa)
ob: KTCS 190053Z AUTO 25013G23KT 10SM CLR 34/M08 A2994 RMK AO2 SLP044 T03391078
cycle: 1

Station Type Date Time Source
KTCS TAF 2019/06/18 18:24 UTC NOAA

TAF KTCS 181721Z 1818/1918 16008KT P6SM FEW250
FM182000 20015G22KT P6SM FEW150
FM190200 29008KT P6SM SKC
FM191200 VRB04KT P6SM SKC

Example: see airport list